sensor_id;sensor_type;location;lat;lon;timestamp;pressure;altitude;pressure_sealevel;temperature
4421;BMP180;11824;51.178;13.546;2024-02-26T00:00:13;98996.00;;;1.70
4421;BMP180;11824;51.178;13.546;2024-02-26T00:02:42;98998.00;;;1.70
4421;BMP180;11824;51.178;13.546;2024-02-26T00:05:11;98996.00;;;1.60
4421;BMP180;11824;51.178;13.546;2024-02-26T00:07:40;98994.00;;;1.60
4421;BMP180;11824;51.178;13.546;2024-02-26T00:10:11;98987.00;;;1.60
4421;BMP180;11824;51.178;13.546;2024-02-26T00:12:40;98986.00;;;1.60
4421;BMP180;11824;51.178;13.546;2024-02-26T00:15:09;98978.00;;;1.60
4421;BMP180;11824;51.178;13.546;2024-02-26T00:17:38;98987.00;;;1.60
4421;BMP180;11824;51.178;13.546;2024-02-26T00:20:09;98984.00;;;1.60
4421;BMP180;11824;51.178;13.546;2024-02-26T00:22:38;98986.00;;;1.50
4421;BMP180;11824;51.178;13.546;2024-02-26T00:25:07;98972.00;;;1.50
4421;BMP180;11824;51.178;13.546;2024-02-26T00:27:37;98967.00;;;1.50
4421;BMP180;11824;51.178;13.546;2024-02-26T00:30:08;98972.00;;;1.50
4421;BMP180;11824;51.178;13.546;2024-02-26T00:32:37;98968.00;;;1.50
4421;BMP180;11824;51.178;13.546;2024-02-26T00:35:07;98973.00;;;1.50
4421;BMP180;11824;51.178;13.546;2024-02-26T00:37:37;98963.00;;;1.50
4421;BMP180;11824;51.178;13.546;2024-02-26T00:40:07;98964.00;;;1.40
4421;BMP180;11824;51.178;13.546;2024-02-26T00:42:38;98968.00;;;1.40
4421;BMP180;11824;51.178;13.546;2024-02-26T00:45:13;98965.00;;;1.40
4421;BMP180;11824;51.178;13.546;2024-02-26T00:47:42;98975.00;;;1.40
4421;BMP180;11824;51.178;13.546;2024-02-26T00:50:12;98968.00;;;1.40
4421;BMP180;11824;51.178;13.546;2024-02-26T00:52:41;98963.00;;;1.40
4421;BMP180;11824;51.178;13.546;2024-02-26T00:55:10;98966.00;;;1.40
4421;BMP180;11824;51.178;13.546;2024-02-26T00:57:40;98964.00;;;1.40
4421;BMP180;11824;51.178;13.546;2024-02-26T01:00:10;98954.00;;;1.30
4421;BMP180;11824;51.178;13.546;2024-02-26T01:02:39;98956.00;;;1.30
4421;BMP180;11824;51.178;13.546;2024-02-26T01:05:09;98951.00;;;1.30
4421;BMP180;11824;51.178;13.546;2024-02-26T01:07:38;98949.00;;;1.30
4421;BMP180;11824;51.178;13.546;2024-02-26T01:10:08;98951.00;;;1.30
4421;BMP180;11824;51.178;13.546;2024-02-26T01:12:37;98951.00;;;1.30
4421;BMP180;11824;51.178;13.546;2024-02-26T01:15:08;98945.00;;;1.20
4421;BMP180;11824;51.178;13.546;2024-02-26T01:17:37;98948.00;;;1.20
4421;BMP180;11824;51.178;13.546;2024-02-26T01:20:07;98948.00;;;1.20
4421;BMP180;11824;51.178;13.546;2024-02-26T01:22:37;98941.00;;;1.20
4421;BMP180;11824;51.178;13.546;2024-02-26T01:25:08;98944.00;;;1.20
4421;BMP180;11824;51.178;13.546;2024-02-26T01:27:38;98946.00;;;1.20
4421;BMP180;11824;51.178;13.546;2024-02-26T01:30:11;98941.00;;;1.20
4421;BMP180;11824;51.178;13.546;2024-02-26T01:32:43;98938.00;;;1.20
4421;BMP180;11824;51.178;13.546;2024-02-26T01:35:12;98938.00;;;1.20
4421;BMP180;11824;51.178;13.546;2024-02-26T01:37:41;98930.00;;;1.20
4421;BMP180;11824;51.178;13.546;2024-02-26T01:40:11;98936.00;;;1.20
4421;BMP180;11824;51.178;13.546;2024-02-26T01:42:45;98916.00;;;1.10
4421;BMP180;11824;51.178;13.546;2024-02-26T01:45:16;98925.00;;;1.10
4421;BMP180;11824;51.178;13.546;2024-02-26T01:47:50;98919.00;;;1.10
4421;BMP180;11824;51.178;13.546;2024-02-26T01:50:20;98916.00;;;1.10
4421;BMP180;11824;51.178;13.546;2024-02-26T01:52:51;98915.00;;;1.20
4421;BMP180;11824;51.178;13.546;2024-02-26T01:55:21;98916.00;;;1.20
4421;BMP180;11824;51.178;13.546;2024-02-26T01:57:52;98910.00;;;1.20
4421;BMP180;11824;51.178;13.546;2024-02-26T02:00:23;98897.00;;;1.20
4421;BMP180;11824;51.178;13.546;2024-02-26T02:02:53;98902.00;;;1.10
4421;BMP180;11824;51.178;13.546;2024-02-26T02:05:23;98900.00;;;1.10
4421;BMP180;11824;51.178;13.546;2024-02-26T02:07:53;98904.00;;;1.10
4421;BMP180;11824;51.178;13.546;2024-02-26T02:10:22;98900.00;;;1.10
4421;BMP180;11824;51.178;13.546;2024-02-26T02:12:53;98905.00;;;1.10
4421;BMP180;11824;51.178;13.546;2024-02-26T02:15:23;98899.00;;;1.00
4421;BMP180;11824;51.178;13.546;2024-02-26T02:17:52;98898.00;;;1.00
4421;BMP180;11824;51.178;13.546;2024-02-26T02:20:26;98900.00;;;1.00
4421;BMP180;11824;51.178;13.546;2024-02-26T02:22:55;98899.00;;;1.00
4421;BMP180;11824;51.178;13.546;2024-02-26T02:25:24;98891.00;;;1.00
4421;BMP180;11824;51.178;13.546;2024-02-26T02:27:54;98897.00;;;0.90
4421;BMP180;11824;51.178;13.546;2024-02-26T02:30:26;98888.00;;;0.90
4421;BMP180;11824;51.178;13.546;2024-02-26T02:32:56;98895.00;;;0.90
4421;BMP180;11824;51.178;13.546;2024-02-26T02:35:27;98888.00;;;0.90
4421;BMP180;11824;51.178;13.546;2024-02-26T02:37:57;98891.00;;;0.90
4421;BMP180;11824;51.178;13.546;2024-02-26T02:40:25;98883.00;;;0.90
4421;BMP180;11824;51.178;13.546;2024-02-26T02:42:54;98880.00;;;0.90
4421;BMP180;11824;51.178;13.546;2024-02-26T02:45:23;98881.00;;;0.90
4421;BMP180;11824;51.178;13.546;2024-02-26T02:47:52;98875.00;;;0.90
4421;BMP180;11824;51.178;13.546;2024-02-26T02:50:21;98883.00;;;0.90
4421;BMP180;11824;51.178;13.546;2024-02-26T02:52:51;98881.00;;;0.80
4421;BMP180;11824;51.178;13.546;2024-02-26T02:55:20;98878.00;;;0.80
4421;BMP180;11824;51.178;13.546;2024-02-26T02:57:48;98881.00;;;0.80
4421;BMP180;11824;51.178;13.546;2024-02-26T03:00:18;98877.00;;;0.80
4421;BMP180;11824;51.178;13.546;2024-02-26T03:02:47;98879.00;;;0.80
4421;BMP180;11824;51.178;13.546;2024-02-26T03:05:16;98882.00;;;0.80
4421;BMP180;11824;51.178;13.546;2024-02-26T03:07:44;98891.00;;;0.70
4421;BMP180;11824;51.178;13.546;2024-02-26T03:10:15;98881.00;;;0.70
4421;BMP180;11824;51.178;13.546;2024-02-26T03:12:44;98890.00;;;0.70
4421;BMP180;11824;51.178;13.546;2024-02-26T03:15:13;98891.00;;;0.70
4421;BMP180;11824;51.178;13.546;2024-02-26T03:17:42;98891.00;;;0.60
4421;BMP180;11824;51.178;13.546;2024-02-26T03:20:11;98891.00;;;0.60
4421;BMP180;11824;51.178;13.546;2024-02-26T03:22:40;98887.00;;;0.60
4421;BMP180;11824;51.178;13.546;2024-02-26T03:25:09;98901.00;;;0.60
4421;BMP180;11824;51.178;13.546;2024-02-26T03:27:39;98897.00;;;0.60
4421;BMP180;11824;51.178;13.546;2024-02-26T03:30:09;98910.00;;;0.60
4421;BMP180;11824;51.178;13.546;2024-02-26T03:32:38;98912.00;;;0.60
4421;BMP180;11824;51.178;13.546;2024-02-26T03:35:08;98916.00;;;0.60
4421;BMP180;11824;51.178;13.546;2024-02-26T03:37:37;98911.00;;;0.60
4421;BMP180;11824;51.178;13.546;2024-02-26T03:40:06;98925.00;;;0.60
4421;BMP180;11824;51.178;13.546;2024-02-26T03:42:38;98919.00;;;0.60
4421;BMP180;11824;51.178;13.546;2024-02-26T03:45:07;98916.00;;;0.60
4421;BMP180;11824;51.178;13.546;2024-02-26T03:47:38;98919.00;;;0.60
4421;BMP180;11824;51.178;13.546;2024-02-26T03:50:08;98912.00;;;0.60
4421;BMP180;11824;51.178;13.546;2024-02-26T03:52:37;98915.00;;;0.60
4421;BMP180;11824;51.178;13.546;2024-02-26T03:55:06;98910.00;;;0.60
4421;BMP180;11824;51.178;13.546;2024-02-26T03:57:37;98912.00;;;0.60
4421;BMP180;11824;51.178;13.546;2024-02-26T04:00:07;98917.00;;;0.60
4421;BMP180;11824;51.178;13.546;2024-02-26T04:02:36;98916.00;;;0.60
4421;BMP180;11824;51.178;13.546;2024-02-26T04:05:08;98915.00;;;0.60
4421;BMP180;11824;51.178;13.546;2024-02-26T04:07:38;98919.00;;;0.60
4421;BMP180;11824;51.178;13.546;2024-02-26T04:10:09;98919.00;;;0.60
4421;BMP180;11824;51.178;13.546;2024-02-26T04:12:40;98922.00;;;0.60
4421;BMP180;11824;51.178;13.546;2024-02-26T04:15:10;98930.00;;;0.60
4421;BMP180;11824;51.178;13.546;2024-02-26T04:17:39;98922.00;;;0.60
4421;BMP180;11824;51.178;13.546;2024-02-26T04:20:12;98911.00;;;0.60
4421;BMP180;11824;51.178;13.546;2024-02-26T04:22:41;98920.00;;;0.60
4421;BMP180;11824;51.178;13.546;2024-02-26T04:25:10;98915.00;;;0.60
4421;BMP180;11824;51.178;13.546;2024-02-26T04:27:40;98918.00;;;0.60
4421;BMP180;11824;51.178;13.546;2024-02-26T04:30:10;98911.00;;;0.60
4421;BMP180;11824;51.178;13.546;2024-02-26T04:32:39;98912.00;;;0.60
4421;BMP180;11824;51.178;13.546;2024-02-26T04:35:08;98912.00;;;0.50
4421;BMP180;11824;51.178;13.546;2024-02-26T04:37:37;98924.00;;;0.50
4421;BMP180;11824;51.178;13.546;2024-02-26T04:40:07;98920.00;;;0.50
4421;BMP180;11824;51.178;13.546;2024-02-26T04:42:36;98922.00;;;0.50
4421;BMP180;11824;51.178;13.546;2024-02-26T04:45:07;98931.00;;;0.50
4421;BMP180;11824;51.178;13.546;2024-02-26T04:47:36;98926.00;;;0.40
4421;BMP180;11824;51.178;13.546;2024-02-26T04:50:06;98930.00;;;0.40
4421;BMP180;11824;51.178;13.546;2024-02-26T04:52:35;98924.00;;;0.40
4421;BMP180;11824;51.178;13.546;2024-02-26T04:55:05;98929.00;;;0.40
4421;BMP180;11824;51.178;13.546;2024-02-26T04:57:34;98933.00;;;0.30
4421;BMP180;11824;51.178;13.546;2024-02-26T05:00:03;98941.00;;;0.30
4421;BMP180;11824;51.178;13.546;2024-02-26T05:02:33;98928.00;;;0.30
4421;BMP180;11824;51.178;13.546;2024-02-26T05:05:05;98926.00;;;0.30
4421;BMP180;11824;51.178;13.546;2024-02-26T05:07:40;98938.00;;;0.30
4421;BMP180;11824;51.178;13.546;2024-02-26T05:10:10;98941.00;;;0.20
4421;BMP180;11824;51.178;13.546;2024-02-26T05:12:39;98932.00;;;0.20
4421;BMP180;11824;51.178;13.546;2024-02-26T05:15:10;98953.00;;;0.20
4421;BMP180;11824;51.178;13.546;2024-02-26T05:17:44;98952.00;;;0.20
4421;BMP180;11824;51.178;13.546;2024-02-26T05:20:13;98955.00;;;0.10
4421;BMP180;11824;51.178;13.546;2024-02-26T05:22:42;98961.00;;;0.10
4421;BMP180;11824;51.178;13.546;2024-02-26T05:25:11;98958.00;;;0.10
4421;BMP180;11824;51.178;13.546;2024-02-26T05:27:40;98959.00;;;0.10
4421;BMP180;11824;51.178;13.546;2024-02-26T05:30:10;98957.00;;;0.10
4421;BMP180;11824;51.178;13.546;2024-02-26T05:32:40;98955.00;;;0.00
4421;BMP180;11824;51.178;13.546;2024-02-26T05:35:10;98961.00;;;0.00
4421;BMP180;11824;51.178;13.546;2024-02-26T05:37:39;98968.00;;;0.00
4421;BMP180;11824;51.178;13.546;2024-02-26T05:40:09;98955.00;;;0.00
4421;BMP180;11824;51.178;13.546;2024-02-26T05:42:38;98968.00;;;0.00
4421;BMP180;11824;51.178;13.546;2024-02-26T05:45:08;98962.00;;;-0.10
4421;BMP180;11824;51.178;13.546;2024-02-26T05:47:37;98965.00;;;-0.10
4421;BMP180;11824;51.178;13.546;2024-02-26T05:50:12;98968.00;;;-0.10
4421;BMP180;11824;51.178;13.546;2024-02-26T05:52:42;98973.00;;;-0.10
4421;BMP180;11824;51.178;13.546;2024-02-26T05:55:11;98977.00;;;-0.10
4421;BMP180;11824;51.178;13.546;2024-02-26T05:57:40;98979.00;;;-0.10
4421;BMP180;11824;51.178;13.546;2024-02-26T06:00:10;98990.00;;;0.00
4421;BMP180;11824;51.178;13.546;2024-02-26T06:02:42;98989.00;;;0.00
4421;BMP180;11824;51.178;13.546;2024-02-26T06:05:12;98973.00;;;0.00
4421;BMP180;11824;51.178;13.546;2024-02-26T06:07:41;98962.00;;;0.00
4421;BMP180;11824;51.178;13.546;2024-02-26T06:10:10;98975.00;;;0.10
4421;BMP180;11824;51.178;13.546;2024-02-26T06:12:41;98972.00;;;0.10
4421;BMP180;11824;51.178;13.546;2024-02-26T06:15:10;98977.00;;;0.10
4421;BMP180;11824;51.178;13.546;2024-02-26T06:17:39;98975.00;;;0.20
4421;BMP180;11824;51.178;13.546;2024-02-26T06:20:09;98975.00;;;0.20
4421;BMP180;11824;51.178;13.546;2024-02-26T06:22:42;98977.00;;;0.30
4421;BMP180;11824;51.178;13.546;2024-02-26T06:25:11;98983.00;;;0.30
4421;BMP180;11824;51.178;13.546;2024-02-26T06:27:39;98979.00;;;0.40
4421;BMP180;11824;51.178;13.546;2024-02-26T06:30:09;98977.00;;;0.50
4421;BMP180;11824;51.178;13.546;2024-02-26T06:32:39;98981.00;;;0.50
4421;BMP180;11824;51.178;13.546;2024-02-26T06:35:08;98968.00;;;0.60
4421;BMP180;11824;51.178;13.546;2024-02-26T06:37:40;98975.00;;;0.70
4421;BMP180;11824;51.178;13.546;2024-02-26T06:40:09;98982.00;;;0.70
4421;BMP180;11824;51.178;13.546;2024-02-26T06:42:38;98975.00;;;0.90
4421;BMP180;11824;51.178;13.546;2024-02-26T06:45:07;98973.00;;;0.90
4421;BMP180;11824;51.178;13.546;2024-02-26T06:47:36;98973.00;;;1.00
4421;BMP180;11824;51.178;13.546;2024-02-26T06:50:06;98971.00;;;1.10
4421;BMP180;11824;51.178;13.546;2024-02-26T06:52:34;98972.00;;;1.20
4421;BMP180;11824;51.178;13.546;2024-02-26T06:55:05;98976.00;;;1.30
4421;BMP180;11824;51.178;13.546;2024-02-26T06:57:36;98969.00;;;1.40
4421;BMP180;11824;51.178;13.546;2024-02-26T07:00:05;98965.00;;;1.60
4421;BMP180;11824;51.178;13.546;2024-02-26T07:02:34;98967.00;;;1.70
4421;BMP180;11824;51.178;13.546;2024-02-26T07:05:07;98974.00;;;1.80
4421;BMP180;11824;51.178;13.546;2024-02-26T07:07:36;98979.00;;;1.90
4421;BMP180;11824;51.178;13.546;2024-02-26T07:10:07;98983.00;;;2.00
4421;BMP180;11824;51.178;13.546;2024-02-26T07:12:36;98978.00;;;2.10
4421;BMP180;11824;51.178;13.546;2024-02-26T07:15:06;98993.00;;;2.20
4421;BMP180;11824;51.178;13.546;2024-02-26T07:17:35;98991.00;;;2.30
4421;BMP180;11824;51.178;13.546;2024-02-26T07:20:05;98987.00;;;2.40
4421;BMP180;11824;51.178;13.546;2024-02-26T07:22:37;98977.00;;;2.50
4421;BMP180;11824;51.178;13.546;2024-02-26T07:25:07;98977.00;;;2.60
4421;BMP180;11824;51.178;13.546;2024-02-26T07:27:39;98986.00;;;2.60
4421;BMP180;11824;51.178;13.546;2024-02-26T07:30:09;98979.00;;;2.70
4421;BMP180;11824;51.178;13.546;2024-02-26T07:32:38;98997.00;;;2.80
4421;BMP180;11824;51.178;13.546;2024-02-26T07:35:07;98996.00;;;2.90
4421;BMP180;11824;51.178;13.546;2024-02-26T07:37:37;98992.00;;;3.00
4421;BMP180;11824;51.178;13.546;2024-02-26T07:40:09;98998.00;;;3.10
4421;BMP180;11824;51.178;13.546;2024-02-26T07:42:37;98999.00;;;3.20
4421;BMP180;11824;51.178;13.546;2024-02-26T07:45:07;98990.00;;;3.30
4421;BMP180;11824;51.178;13.546;2024-02-26T07:47:36;99002.00;;;3.40
4421;BMP180;11824;51.178;13.546;2024-02-26T07:50:08;98999.00;;;3.50
4421;BMP180;11824;51.178;13.546;2024-02-26T07:52:39;98994.00;;;3.50
4421;BMP180;11824;51.178;13.546;2024-02-26T07:55:10;98983.00;;;3.60
4421;BMP180;11824;51.178;13.546;2024-02-26T07:57:42;98989.00;;;3.70
4421;BMP180;11824;51.178;13.546;2024-02-26T08:00:12;98991.00;;;3.80
4421;BMP180;11824;51.178;13.546;2024-02-26T08:02:44;99000.00;;;3.90
4421;BMP180;11824;51.178;13.546;2024-02-26T08:05:14;98997.00;;;3.90
4421;BMP180;11824;51.178;13.546;2024-02-26T08:07:43;98989.00;;;4.00
4421;BMP180;11824;51.178;13.546;2024-02-26T08:10:14;98993.00;;;4.10
4421;BMP180;11824;51.178;13.546;2024-02-26T08:12:43;99001.00;;;4.10
4421;BMP180;11824;51.178;13.546;2024-02-26T08:15:12;99003.00;;;4.20
4421;BMP180;11824;51.178;13.546;2024-02-26T08:17:41;99005.00;;;4.30
4421;BMP180;11824;51.178;13.546;2024-02-26T08:20:11;99000.00;;;4.30
4421;BMP180;11824;51.178;13.546;2024-02-26T08:22:40;98997.00;;;4.40
4421;BMP180;11824;51.178;13.546;2024-02-26T08:25:09;98996.00;;;4.40
4421;BMP180;11824;51.178;13.546;2024-02-26T08:27:40;99004.00;;;4.50
4421;BMP180;11824;51.178;13.546;2024-02-26T08:30:10;98992.00;;;4.60
4421;BMP180;11824;51.178;13.546;2024-02-26T08:32:40;99001.00;;;4.60
4421;BMP180;11824;51.178;13.546;2024-02-26T08:35:10;99007.00;;;4.70
4421;BMP180;11824;51.178;13.546;2024-02-26T08:37:39;98997.00;;;4.70
4421;BMP180;11824;51.178;13.546;2024-02-26T08:40:08;99003.00;;;4.80
4421;BMP180;11824;51.178;13.546;2024-02-26T08:42:40;99004.00;;;4.90
4421;BMP180;11824;51.178;13.546;2024-02-26T08:45:09;99016.00;;;5.00
4421;BMP180;11824;51.178;13.546;2024-02-26T08:47:39;99015.00;;;5.10
4421;BMP180;11824;51.178;13.546;2024-02-26T08:50:08;99022.00;;;5.30
4421;BMP180;11824;51.178;13.546;2024-02-26T08:52:39;99019.00;;;5.40
4421;BMP180;11824;51.178;13.546;2024-02-26T08:55:09;99017.00;;;5.50
4421;BMP180;11824;51.178;13.546;2024-02-26T08:57:39;99012.00;;;5.60
4421;BMP180;11824;51.178;13.546;2024-02-26T09:00:08;99012.00;;;5.70
4421;BMP180;11824;51.178;13.546;2024-02-26T09:02:38;99011.00;;;5.80
4421;BMP180;11824;51.178;13.546;2024-02-26T09:05:08;99011.00;;;5.90
4421;BMP180;11824;51.178;13.546;2024-02-26T09:07:37;99010.00;;;6.10
4421;BMP180;11824;51.178;13.546;2024-02-26T09:10:07;99008.00;;;6.20
4421;BMP180;11824;51.178;13.546;2024-02-26T09:12:39;99007.00;;;6.40
4421;BMP180;11824;51.178;13.546;2024-02-26T09:15:09;99004.00;;;6.60
4421;BMP180;11824;51.178;13.546;2024-02-26T09:17:38;99004.00;;;6.80
4421;BMP180;11824;51.178;13.546;2024-02-26T09:20:07;99007.00;;;7.00
4421;BMP180;11824;51.178;13.546;2024-02-26T09:22:37;99005.00;;;7.10
4421;BMP180;11824;51.178;13.546;2024-02-26T09:25:07;99015.00;;;7.30
4421;BMP180;11824;51.178;13.546;2024-02-26T09:27:36;99013.00;;;7.50
4421;BMP180;11824;51.178;13.546;2024-02-26T09:30:12;99011.00;;;7.70
4421;BMP180;11824;51.178;13.546;2024-02-26T09:32:41;99009.00;;;7.80
4421;BMP180;11824;51.178;13.546;2024-02-26T09:35:10;99020.00;;;7.90
4421;BMP180;11824;51.178;13.546;2024-02-26T09:37:38;99025.00;;;8.10
4421;BMP180;11824;51.178;13.546;2024-02-26T09:40:08;99015.00;;;8.20
4421;BMP180;11824;51.178;13.546;2024-02-26T09:42:44;99008.00;;;8.40
4421;BMP180;11824;51.178;13.546;2024-02-26T09:45:18;99016.00;;;8.50
4421;BMP180;11824;51.178;13.546;2024-02-26T09:47:48;99023.00;;;8.60
4421;BMP180;11824;51.178;13.546;2024-02-26T09:50:18;99029.00;;;8.70
4421;BMP180;11824;51.178;13.546;2024-02-26T09:52:51;99021.00;;;8.80
4421;BMP180;11824;51.178;13.546;2024-02-26T09:55:20;99020.00;;;8.90
4421;BMP180;11824;51.178;13.546;2024-02-26T09:57:52;99028.00;;;9.00
4421;BMP180;11824;51.178;13.546;2024-02-26T10:00:23;99029.00;;;9.10
4421;BMP180;11824;51.178;13.546;2024-02-26T10:02:53;99040.00;;;9.20
4421;BMP180;11824;51.178;13.546;2024-02-26T10:05:25;99051.00;;;9.30
4421;BMP180;11824;51.178;13.546;2024-02-26T10:07:56;99047.00;;;9.40
4421;BMP180;11824;51.178;13.546;2024-02-26T10:10:25;99036.00;;;9.60
4421;BMP180;11824;51.178;13.546;2024-02-26T10:12:55;99035.00;;;9.70
4421;BMP180;11824;51.178;13.546;2024-02-26T10:15:25;99033.00;;;9.70
4421;BMP180;11824;51.178;13.546;2024-02-26T10:17:54;99039.00;;;9.80
4421;BMP180;11824;51.178;13.546;2024-02-26T10:20:24;99035.00;;;9.90
4421;BMP180;11824;51.178;13.546;2024-02-26T10:22:54;99044.00;;;10.00
4421;BMP180;11824;51.178;13.546;2024-02-26T10:25:22;99048.00;;;10.00
4421;BMP180;11824;51.178;13.546;2024-02-26T10:27:51;99044.00;;;10.10
4421;BMP180;11824;51.178;13.546;2024-02-26T10:30:22;99047.00;;;10.20
4421;BMP180;11824;51.178;13.546;2024-02-26T10:32:55;99049.00;;;10.30
4421;BMP180;11824;51.178;13.546;2024-02-26T10:35:24;99049.00;;;10.40
4421;BMP180;11824;51.178;13.546;2024-02-26T10:37:53;99047.00;;;10.50
4421;BMP180;11824;51.178;13.546;2024-02-26T10:40:22;99048.00;;;10.60
4421;BMP180;11824;51.178;13.546;2024-02-26T10:42:51;99044.00;;;10.60
4421;BMP180;11824;51.178;13.546;2024-02-26T10:45:20;99047.00;;;10.70
4421;BMP180;11824;51.178;13.546;2024-02-26T10:47:49;99044.00;;;10.80
4421;BMP180;11824;51.178;13.546;2024-02-26T10:50:20;99049.00;;;10.80
4421;BMP180;11824;51.178;13.546;2024-02-26T10:52:49;99038.00;;;10.90
4421;BMP180;11824;51.178;13.546;2024-02-26T10:55:18;99049.00;;;11.00
4421;BMP180;11824;51.178;13.546;2024-02-26T10:57:50;99037.00;;;11.00
4421;BMP180;11824;51.178;13.546;2024-02-26T11:00:19;99027.00;;;11.10
4421;BMP180;11824;51.178;13.546;2024-02-26T11:02:49;99036.00;;;11.10
4421;BMP180;11824;51.178;13.546;2024-02-26T11:05:20;99039.00;;;11.20
4421;BMP180;11824;51.178;13.546;2024-02-26T11:07:50;99035.00;;;11.20
4421;BMP180;11824;51.178;13.546;2024-02-26T11:10:20;99040.00;;;11.30
4421;BMP180;11824;51.178;13.546;2024-02-26T11:12:50;99036.00;;;11.30
4421;BMP180;11824;51.178;13.546;2024-02-26T11:15:20;99043.00;;;11.30
4421;BMP180;11824;51.178;13.546;2024-02-26T11:17:49;99040.00;;;11.40
4421;BMP180;11824;51.178;13.546;2024-02-26T11:20:21;99034.00;;;11.40
4421;BMP180;11824;51.178;13.546;2024-02-26T11:22:51;99028.00;;;11.40
4421;BMP180;11824;51.178;13.546;2024-02-26T11:25:20;99041.00;;;11.40
4421;BMP180;11824;51.178;13.546;2024-02-26T11:27:53;99042.00;;;11.50
4421;BMP180;11824;51.178;13.546;2024-02-26T11:30:26;99036.00;;;11.60
4421;BMP180;11824;51.178;13.546;2024-02-26T11:32:56;99030.00;;;11.60
4421;BMP180;11824;51.178;13.546;2024-02-26T11:35:29;99036.00;;;11.70
4421;BMP180;11824;51.178;13.546;2024-02-26T11:37:59;99028.00;;;11.80
4421;BMP180;11824;51.178;13.546;2024-02-26T11:40:32;99027.00;;;11.90
4421;BMP180;11824;51.178;13.546;2024-02-26T11:43:02;99035.00;;;11.90
4421;BMP180;11824;51.178;13.546;2024-02-26T11:45:49;99043.00;;;12.00
4421;BMP180;11824;51.178;13.546;2024-02-26T11:48:23;99053.00;;;12.10
4421;BMP180;11824;51.178;13.546;2024-02-26T11:50:55;99040.00;;;12.10
4421;BMP180;11824;51.178;13.546;2024-02-26T11:53:27;99038.00;;;12.20
4421;BMP180;11824;51.178;13.546;2024-02-26T11:56:21;99039.00;;;12.20
4421;BMP180;11824;51.178;13.546;2024-02-26T11:58:59;99041.00;;;12.30
4421;BMP180;11824;51.178;13.546;2024-02-26T12:01:44;99041.00;;;12.40
4421;BMP180;11824;51.178;13.546;2024-02-26T12:04:21;99041.00;;;12.50
4421;BMP180;11824;51.178;13.546;2024-02-26T12:06:56;99041.00;;;12.50
4421;BMP180;11824;51.178;13.546;2024-02-26T12:09:32;99044.00;;;12.50
4421;BMP180;11824;51.178;13.546;2024-02-26T12:12:02;99041.00;;;12.50
4421;BMP180;11824;51.178;13.546;2024-02-26T12:14:34;99043.00;;;12.60
4421;BMP180;11824;51.178;13.546;2024-02-26T12:17:03;99057.00;;;12.70
4421;BMP180;11824;51.178;13.546;2024-02-26T12:19:35;99060.00;;;12.80
4421;BMP180;11824;51.178;13.546;2024-02-26T12:22:10;99064.00;;;12.80
4421;BMP180;11824;51.178;13.546;2024-02-26T12:24:41;99067.00;;;12.80
4421;BMP180;11824;51.178;13.546;2024-02-26T12:27:10;99064.00;;;12.90
4421;BMP180;11824;51.178;13.546;2024-02-26T12:29:40;99075.00;;;12.90
4421;BMP180;11824;51.178;13.546;2024-02-26T12:32:09;99063.00;;;12.90
4421;BMP180;11824;51.178;13.546;2024-02-26T12:34:39;99067.00;;;12.90
4421;BMP180;11824;51.178;13.546;2024-02-26T12:37:09;99068.00;;;12.90
4421;BMP180;11824;51.178;13.546;2024-02-26T12:39:39;99065.00;;;12.90
4421;BMP180;11824;51.178;13.546;2024-02-26T12:42:08;99071.00;;;12.90
4421;BMP180;11824;51.178;13.546;2024-02-26T12:44:38;99063.00;;;13.00
4421;BMP180;11824;51.178;13.546;2024-02-26T12:47:07;99069.00;;;13.00
4421;BMP180;11824;51.178;13.546;2024-02-26T12:49:35;99065.00;;;13.00
4421;BMP180;11824;51.178;13.546;2024-02-26T12:52:05;99063.00;;;13.10
4421;BMP180;11824;51.178;13.546;2024-02-26T12:54:37;99070.00;;;13.10
4421;BMP180;11824;51.178;13.546;2024-02-26T12:57:07;99072.00;;;13.10
4421;BMP180;11824;51.178;13.546;2024-02-26T12:59:37;99072.00;;;13.10
4421;BMP180;11824;51.178;13.546;2024-02-26T13:02:06;99076.00;;;13.20
4421;BMP180;11824;51.178;13.546;2024-02-26T13:04:36;99068.00;;;13.20
4421;BMP180;11824;51.178;13.546;2024-02-26T13:07:06;99078.00;;;13.20
4421;BMP180;11824;51.178;13.546;2024-02-26T13:09:36;99076.00;;;13.20
4421;BMP180;11824;51.178;13.546;2024-02-26T13:12:06;99073.00;;;13.20
4421;BMP180;11824;51.178;13.546;2024-02-26T13:14:36;99074.00;;;13.20
4421;BMP180;11824;51.178;13.546;2024-02-26T13:17:05;99081.00;;;13.20
4421;BMP180;11824;51.178;13.546;2024-02-26T13:19:34;99075.00;;;13.20
4421;BMP180;11824;51.178;13.546;2024-02-26T13:22:06;99083.00;;;13.10
4421;BMP180;11824;51.178;13.546;2024-02-26T13:24:37;99095.00;;;13.20
4421;BMP180;11824;51.178;13.546;2024-02-26T13:27:06;99088.00;;;13.20
4421;BMP180;11824;51.178;13.546;2024-02-26T13:29:35;99088.00;;;13.20
4421;BMP180;11824;51.178;13.546;2024-02-26T13:32:04;99095.00;;;13.20
4421;BMP180;11824;51.178;13.546;2024-02-26T13:34:34;99092.00;;;13.20
4421;BMP180;11824;51.178;13.546;2024-02-26T13:37:04;99094.00;;;13.10
4421;BMP180;11824;51.178;13.546;2024-02-26T13:39:34;99089.00;;;13.10
4421;BMP180;11824;51.178;13.546;2024-02-26T13:42:08;99092.00;;;13.00
4421;BMP180;11824;51.178;13.546;2024-02-26T13:44:39;99085.00;;;13.00
4421;BMP180;11824;51.178;13.546;2024-02-26T13:47:08;99096.00;;;13.00
4421;BMP180;11824;51.178;13.546;2024-02-26T13:49:37;99092.00;;;13.00
4421;BMP180;11824;51.178;13.546;2024-02-26T13:52:06;99097.00;;;13.00
4421;BMP180;11824;51.178;13.546;2024-02-26T13:54:35;99104.00;;;13.00
4421;BMP180;11824;51.178;13.546;2024-02-26T13:57:07;99107.00;;;13.00
4421;BMP180;11824;51.178;13.546;2024-02-26T13:59:37;99106.00;;;13.00
4421;BMP180;11824;51.178;13.546;2024-02-26T14:02:09;99116.00;;;13.00
4421;BMP180;11824;51.178;13.546;2024-02-26T14:04:38;99107.00;;;12.90
4421;BMP180;11824;51.178;13.546;2024-02-26T14:07:08;99103.00;;;12.90
4421;BMP180;11824;51.178;13.546;2024-02-26T14:09:37;99112.00;;;12.80
4421;BMP180;11824;51.178;13.546;2024-02-26T14:12:17;99119.00;;;12.80
4421;BMP180;11824;51.178;13.546;2024-02-26T14:14:51;99121.00;;;12.70
4421;BMP180;11824;51.178;13.546;2024-02-26T14:17:21;99124.00;;;12.70
4421;BMP180;11824;51.178;13.546;2024-02-26T14:19:50;99123.00;;;12.70
4421;BMP180;11824;51.178;13.546;2024-02-26T14:22:19;99130.00;;;12.60
4421;BMP180;11824;51.178;13.546;2024-02-26T14:24:48;99125.00;;;12.60
4421;BMP180;11824;51.178;13.546;2024-02-26T14:27:19;99133.00;;;12.60
4421;BMP180;11824;51.178;13.546;2024-02-26T14:29:49;99136.00;;;12.50
4421;BMP180;11824;51.178;13.546;2024-02-26T14:32:18;99140.00;;;12.50